createdAt,value
2017-11-30T00:01:58.488Z,0.80
2017-11-30T00:04:26.770Z,0.90
2017-11-30T00:06:55.118Z,0.90
2017-11-30T00:09:23.388Z,0.80
2017-11-30T00:11:52.435Z,0.80
2017-11-30T00:14:20.737Z,0.80
2017-11-30T00:16:48.997Z,0.80
2017-11-30T00:19:17.234Z,0.80
2017-11-30T00:21:46.282Z,0.70
2017-11-30T00:24:14.527Z,0.70
2017-11-30T00:26:42.796Z,0.70
2017-11-30T00:29:11.080Z,0.80
2017-11-30T00:31:39.380Z,0.80
2017-11-30T00:34:07.628Z,0.70
2017-11-30T00:36:36.768Z,0.60
2017-11-30T00:39:05.060Z,0.60
2017-11-30T00:41:33.287Z,0.70
2017-11-30T00:44:13.543Z,0.70
2017-11-30T00:46:41.809Z,0.70
2017-11-30T00:49:10.876Z,0.60
2017-11-30T00:51:39.124Z,0.60
2017-11-30T00:54:07.398Z,0.60
2017-11-30T00:56:35.651Z,0.60
2017-11-30T00:59:03.926Z,0.60
2017-11-30T01:01:32.940Z,0.60
2017-11-30T01:04:01.222Z,0.60
2017-11-30T01:06:30.431Z,0.60
2017-11-30T01:08:58.691Z,0.50
2017-11-30T01:11:26.966Z,0.60
2017-11-30T01:13:55.203Z,0.70
2017-11-30T01:16:24.246Z,0.70
2017-11-30T01:18:52.513Z,0.70
2017-11-30T01:21:27.515Z,0.70
2017-11-30T01:23:56.574Z,0.70
2017-11-30T01:26:24.839Z,0.70
2017-11-30T01:28:53.104Z,0.70
2017-11-30T01:31:21.370Z,0.60
2017-11-30T01:33:50.380Z,0.50
2017-11-30T01:36:18.670Z,0.50
2017-11-30T01:38:46.890Z,0.60
2017-11-30T01:41:15.951Z,0.60
2017-11-30T01:43:44.217Z,0.60
2017-11-30T01:46:13.320Z,0.60
2017-11-30T01:48:41.592Z,0.70
2017-11-30T01:51:10.736Z,0.70
2017-11-30T01:53:38.996Z,0.70
2017-11-30T01:56:07.259Z,0.70
2017-11-30T01:58:35.533Z,0.70
2017-11-30T02:01:03.796Z,0.70
2017-11-30T02:03:32.034Z,0.80
2017-11-30T02:06:00.315Z,0.80
2017-11-30T02:08:28.588Z,0.80
2017-11-30T02:10:57.607Z,0.70
2017-11-30T02:13:25.876Z,0.70
2017-11-30T02:15:54.201Z,0.60
2017-11-30T02:18:22.500Z,0.70
2017-11-30T02:20:50.759Z,0.60
2017-11-30T02:23:19.026Z,0.70
2017-11-30T02:25:47.311Z,0.70
2017-11-30T02:28:15.601Z,0.60
2017-11-30T02:30:44.659Z,0.60
2017-11-30T02:33:12.954Z,0.60
2017-11-30T02:35:41.253Z,0.60
2017-11-30T02:38:09.542Z,0.60
2017-11-30T02:40:38.704Z,0.70
2017-11-30T02:43:06.955Z,0.70
2017-11-30T02:45:35.239Z,0.70
2017-11-30T02:48:03.490Z,0.80
2017-11-30T02:50:32.533Z,0.80
2017-11-30T02:53:00.838Z,0.80
2017-11-30T02:55:29.868Z,0.80
2017-11-30T02:57:58.206Z,0.80
2017-11-30T03:00:26.422Z,0.80
2017-11-30T03:02:54.693Z,0.80
2017-11-30T03:05:22.983Z,0.90
2017-11-30T03:07:51.335Z,0.90
2017-11-30T03:10:20.347Z,0.80
2017-11-30T03:12:48.655Z,0.80
2017-11-30T03:15:16.930Z,0.90
2017-11-30T03:17:45.212Z,0.90
2017-11-30T03:20:14.066Z,0.90
2017-11-30T03:22:42.353Z,0.90
2017-11-30T03:25:10.632Z,1.00
2017-11-30T03:27:39.651Z,1.10
2017-11-30T03:30:07.900Z,1.10
2017-11-30T03:32:36.185Z,1.10
2017-11-30T03:35:05.218Z,1.20
2017-11-30T03:37:34.378Z,1.10
2017-11-30T03:40:02.660Z,1.20
2017-11-30T03:42:30.935Z,1.20
2017-11-30T03:44:59.217Z,1.20
2017-11-30T03:47:27.474Z,1.30
2017-11-30T03:49:55.750Z,1.20
2017-11-30T03:52:24.776Z,1.10
2017-11-30T03:54:53.038Z,1.10
2017-11-30T03:57:21.298Z,1.10
2017-11-30T03:59:50.328Z,1.10
2017-11-30T04:02:18.584Z,1.10
2017-11-30T04:04:46.858Z,1.10
2017-11-30T04:07:15.117Z,1.10
2017-11-30T04:09:44.160Z,1.20
2017-11-30T04:12:12.420Z,1.20
2017-11-30T04:14:40.722Z,1.20
2017-11-30T04:17:08.982Z,1.20
2017-11-30T04:19:37.246Z,1.20
2017-11-30T04:22:05.508Z,1.20
2017-11-30T04:24:34.584Z,1.20
2017-11-30T04:27:03.079Z,1.20
2017-11-30T04:29:32.089Z,1.20
2017-11-30T04:32:00.420Z,1.10
2017-11-30T04:34:29.479Z,1.00
2017-11-30T04:36:57.766Z,1.00
2017-11-30T04:39:26.003Z,1.00
2017-11-30T04:41:55.032Z,0.90
2017-11-30T04:44:23.285Z,0.90
2017-11-30T04:46:51.563Z,0.80
2017-11-30T04:49:20.580Z,0.80
2017-11-30T04:51:48.837Z,0.80
2017-11-30T04:54:17.110Z,0.80
2017-11-30T04:56:46.170Z,0.80
2017-11-30T04:59:14.462Z,0.80
2017-11-30T05:01:42.842Z,0.80
2017-11-30T05:04:11.091Z,0.80
2017-11-30T05:06:39.353Z,0.80
2017-11-30T05:09:08.517Z,0.80
2017-11-30T05:11:37.512Z,0.90
2017-11-30T05:14:06.615Z,0.90
2017-11-30T05:16:35.725Z,0.90
2017-11-30T05:19:04.703Z,0.90
2017-11-30T05:21:32.961Z,0.90
2017-11-30T05:24:02.017Z,1.00
2017-11-30T05:26:30.287Z,1.00
2017-11-30T05:28:58.525Z,1.00
2017-11-30T05:31:26.812Z,1.10
2017-11-30T05:33:55.876Z,1.20
2017-11-30T05:36:24.123Z,1.20
2017-11-30T05:38:52.381Z,1.20
2017-11-30T05:41:20.677Z,1.40
2017-11-30T05:43:48.968Z,1.40
2017-11-30T05:46:17.245Z,1.50
2017-11-30T05:48:45.521Z,1.50
2017-11-30T05:51:13.774Z,1.50
2017-11-30T05:53:42.095Z,1.50
2017-11-30T05:56:10.346Z,1.40
2017-11-30T05:58:38.727Z,1.40
2017-11-30T06:01:06.998Z,1.40
2017-11-30T06:03:35.227Z,1.50
2017-11-30T06:06:04.264Z,1.50
2017-11-30T06:08:32.588Z,1.50
2017-11-30T06:11:00.834Z,1.50
2017-11-30T06:13:29.083Z,1.50
2017-11-30T06:15:57.413Z,1.50
2017-11-30T06:18:25.628Z,1.50
2017-11-30T06:20:53.899Z,1.60
2017-11-30T06:23:22.910Z,1.60
2017-11-30T06:25:51.178Z,1.60
2017-11-30T06:28:19.476Z,1.70
2017-11-30T06:30:47.710Z,1.70
2017-11-30T06:33:16.766Z,1.80
2017-11-30T06:35:45.027Z,1.70
2017-11-30T06:38:23.585Z,1.70
2017-11-30T06:40:51.827Z,1.70
2017-11-30T06:43:20.088Z,1.70
2017-11-30T06:45:48.341Z,1.70
2017-11-30T06:48:17.387Z,1.70
2017-11-30T06:50:45.710Z,1.70
2017-11-30T06:53:14.737Z,1.70
2017-11-30T06:55:43.010Z,1.60
2017-11-30T06:58:11.292Z,1.60
2017-11-30T07:00:39.586Z,1.60
2017-11-30T07:03:07.835Z,1.60
2017-11-30T07:05:36.131Z,1.70
2017-11-30T07:08:04.415Z,1.60
2017-11-30T07:10:32.709Z,1.70
2017-11-30T07:13:01.014Z,1.70
2017-11-30T07:15:29.264Z,1.60
2017-11-30T07:17:57.534Z,1.70
2017-11-30T07:20:25.825Z,1.70
2017-11-30T07:22:54.086Z,1.70
2017-11-30T07:25:22.335Z,1.70
2017-11-30T07:27:50.645Z,1.70
2017-11-30T07:30:18.912Z,1.70
2017-11-30T07:32:47.181Z,1.70
2017-11-30T07:35:15.449Z,1.70
2017-11-30T07:37:44.415Z,1.70
2017-11-30T07:40:13.444Z,1.70
2017-11-30T07:42:41.725Z,1.70
2017-11-30T07:45:09.953Z,1.80
2017-11-30T07:47:39.034Z,1.80
2017-11-30T07:50:07.664Z,1.80
2017-11-30T07:52:35.921Z,1.80
2017-11-30T07:55:04.948Z,1.70
2017-11-30T07:57:34.064Z,1.70
2017-11-30T08:00:02.351Z,1.70
2017-11-30T08:02:30.588Z,1.80
2017-11-30T08:04:58.863Z,1.90
2017-11-30T08:07:27.188Z,1.90
2017-11-30T08:09:55.452Z,1.90
2017-11-30T08:12:23.764Z,2.00
2017-11-30T08:14:52.044Z,2.00
2017-11-30T08:17:21.096Z,2.10
2017-11-30T08:19:49.342Z,2.10
2017-11-30T08:22:18.223Z,2.10
2017-11-30T08:24:47.256Z,2.20
2017-11-30T08:27:15.537Z,2.20
2017-11-30T08:29:43.773Z,2.30
2017-11-30T08:32:13.255Z,2.30
2017-11-30T08:34:41.496Z,2.30
2017-11-30T08:37:10.448Z,2.30
2017-11-30T08:39:38.757Z,2.30
2017-11-30T08:42:07.110Z,2.30
2017-11-30T08:44:35.365Z,2.20
2017-11-30T08:47:03.601Z,2.30
2017-11-30T08:49:31.923Z,2.30
2017-11-30T08:52:00.158Z,2.40
2017-11-30T08:54:28.424Z,2.40
2017-11-30T08:56:57.580Z,2.40
2017-11-30T08:59:26.769Z,2.40
2017-11-30T09:01:55.044Z,2.40
2017-11-30T09:04:23.374Z,2.30
2017-11-30T09:06:51.656Z,2.30
2017-11-30T09:09:19.908Z,2.30
2017-11-30T09:11:48.583Z,2.40
2017-11-30T09:14:16.870Z,2.50
2017-11-30T09:16:45.884Z,2.50
2017-11-30T09:19:14.187Z,2.50
2017-11-30T09:21:42.414Z,2.50
2017-11-30T09:24:11.463Z,2.60
2017-11-30T09:26:39.734Z,2.60
2017-11-30T09:29:08.013Z,2.70
2017-11-30T09:31:36.273Z,2.70
2017-11-30T09:34:04.536Z,2.70
2017-11-30T09:36:32.820Z,2.80
2017-11-30T09:39:01.710Z,2.80
2017-11-30T09:41:30.055Z,2.90
2017-11-30T09:43:58.308Z,2.80
2017-11-30T09:46:26.594Z,2.80
2017-11-30T09:48:54.853Z,2.70
2017-11-30T09:51:23.155Z,2.80
2017-11-30T09:53:51.417Z,2.80
2017-11-30T09:56:19.782Z,2.70
2017-11-30T09:58:48.032Z,2.80
2017-11-30T10:01:16.286Z,2.90
2017-11-30T10:03:45.369Z,3.00
2017-11-30T10:06:13.936Z,3.00
2017-11-30T10:08:42.216Z,3.20
2017-11-30T10:11:10.478Z,3.20
2017-11-30T10:13:38.753Z,3.10
2017-11-30T10:16:07.024Z,3.10
2017-11-30T10:18:35.352Z,3.10
2017-11-30T10:21:03.622Z,2.90
2017-11-30T10:23:32.658Z,3.00
2017-11-30T10:26:00.903Z,3.00
2017-11-30T10:28:30.697Z,3.00
2017-11-30T10:30:59.715Z,3.00
2017-11-30T10:33:27.999Z,3.00
2017-11-30T10:35:56.255Z,3.10
2017-11-30T10:38:24.530Z,3.20
2017-11-30T10:40:52.749Z,3.30
2017-11-30T10:43:21.023Z,3.30
2017-11-30T10:45:49.260Z,3.50
2017-11-30T10:48:17.529Z,3.60
2017-11-30T10:50:45.775Z,3.60
2017-11-30T10:53:14.850Z,3.70
2017-11-30T10:55:44.191Z,3.60
2017-11-30T10:58:12.460Z,3.70
2017-11-30T11:00:40.689Z,3.70
2017-11-30T11:03:08.974Z,3.70
2017-11-30T11:05:37.353Z,3.70
2017-11-30T11:08:06.386Z,3.80
2017-11-30T11:10:34.633Z,3.80
2017-11-30T11:13:02.878Z,3.80
2017-11-30T11:15:31.915Z,3.90
2017-11-30T11:18:00.247Z,3.80
2017-11-30T11:20:28.500Z,3.80
2017-11-30T11:22:56.771Z,3.80
2017-11-30T11:25:25.094Z,3.80
2017-11-30T11:27:53.416Z,4.00
2017-11-30T11:30:21.695Z,4.00
2017-11-30T11:32:49.936Z,3.90
2017-11-30T11:35:18.984Z,4.00
2017-11-30T11:37:47.223Z,4.00
2017-11-30T11:40:15.558Z,4.00
2017-11-30T11:42:43.827Z,4.00
2017-11-30T11:45:12.092Z,3.90
2017-11-30T11:47:40.360Z,3.80
2017-11-30T11:50:08.587Z,3.90
2017-11-30T11:52:37.624Z,3.80
2017-11-30T11:55:05.877Z,3.70
2017-11-30T11:57:34.151Z,3.80
2017-11-30T12:00:02.500Z,4.00
2017-11-30T12:02:30.847Z,4.10
2017-11-30T12:04:59.115Z,4.00
2017-11-30T12:07:27.365Z,3.90
2017-11-30T12:09:56.014Z,4.10
2017-11-30T12:12:24.257Z,4.10
2017-11-30T12:14:53.455Z,4.00
2017-11-30T12:17:21.713Z,4.00
2017-11-30T12:19:50.057Z,4.10
2017-11-30T12:22:18.486Z,4.10
2017-11-30T12:24:46.728Z,4.10
2017-11-30T12:27:15.736Z,4.00
2017-11-30T12:29:44.023Z,4.00
2017-11-30T12:32:12.293Z,4.10
2017-11-30T12:34:40.615Z,4.20
2017-11-30T12:37:08.905Z,4.30
2017-11-30T12:39:37.291Z,4.40
2017-11-30T12:42:05.512Z,4.50
2017-11-30T12:44:34.731Z,4.50
2017-11-30T12:47:02.979Z,4.50
2017-11-30T12:49:31.254Z,4.60
2017-11-30T12:51:59.497Z,4.70
2017-11-30T12:54:28.646Z,4.80
2017-11-30T12:56:56.909Z,4.80
2017-11-30T12:59:25.154Z,4.80
2017-11-30T13:01:54.224Z,4.70
2017-11-30T13:04:22.453Z,4.70
2017-11-30T13:06:50.736Z,4.80
2017-11-30T13:09:19.006Z,4.80
2017-11-30T13:11:47.294Z,4.90
2017-11-30T13:14:15.562Z,4.80
2017-11-30T13:16:43.810Z,4.60
2017-11-30T13:19:12.895Z,4.40
2017-11-30T13:21:41.122Z,4.40
2017-11-30T13:24:09.410Z,4.50
2017-11-30T13:26:37.655Z,4.40
2017-11-30T13:29:06.703Z,4.20
2017-11-30T13:31:34.980Z,4.30
2017-11-30T13:34:06.018Z,4.20
2017-11-30T13:36:34.341Z,4.10
2017-11-30T13:39:02.612Z,4.10
2017-11-30T13:41:30.835Z,4.00
2017-11-30T13:43:59.080Z,4.10
2017-11-30T13:46:28.190Z,4.10
2017-11-30T13:48:56.473Z,4.10
2017-11-30T13:51:24.755Z,4.10
2017-11-30T13:53:53.047Z,4.10
2017-11-30T13:56:21.910Z,4.20
2017-11-30T13:58:50.923Z,4.00
2017-11-30T14:01:19.221Z,4.00
2017-11-30T14:03:47.532Z,4.00
2017-11-30T14:06:15.771Z,4.10
2017-11-30T14:08:44.065Z,4.20
2017-11-30T14:11:12.313Z,4.20
2017-11-30T14:13:40.620Z,4.20
2017-11-30T14:16:08.894Z,4.20
2017-11-30T14:18:37.148Z,4.30
2017-11-30T14:21:05.420Z,4.40
2017-11-30T14:23:33.674Z,4.40
2017-11-30T14:26:01.911Z,4.30
2017-11-30T14:28:30.206Z,4.20
2017-11-30T14:30:58.576Z,4.20
2017-11-30T14:33:26.969Z,4.10
2017-11-30T14:35:55.294Z,4.10
2017-11-30T14:38:23.551Z,4.20
2017-11-30T14:40:52.111Z,4.20
2017-11-30T14:43:20.485Z,4.30
2017-11-30T14:45:48.714Z,4.30
2017-11-30T14:48:16.993Z,4.30
2017-11-30T14:50:45.279Z,4.30
2017-11-30T14:53:13.560Z,4.30
2017-11-30T14:55:41.858Z,4.40
2017-11-30T14:58:11.417Z,4.40
2017-11-30T15:00:39.657Z,4.40
2017-11-30T15:03:07.990Z,4.40
2017-11-30T15:05:37.012Z,4.40
2017-11-30T15:08:05.268Z,4.40
2017-11-30T15:10:33.570Z,4.40
2017-11-30T15:13:01.872Z,4.40
2017-11-30T15:15:30.957Z,4.40
2017-11-30T15:17:59.254Z,4.40
2017-11-30T15:20:27.835Z,4.50
2017-11-30T15:22:56.127Z,4.30
2017-11-30T15:25:25.156Z,4.00
2017-11-30T15:27:53.440Z,4.00
2017-11-30T15:30:21.767Z,3.80
2017-11-30T15:32:50.014Z,3.80
2017-11-30T15:35:18.285Z,3.80
2017-11-30T15:37:46.933Z,3.70
2017-11-30T15:40:15.255Z,3.60
2017-11-30T15:42:43.506Z,3.70
2017-11-30T15:45:11.824Z,3.60
2017-11-30T15:47:40.086Z,3.60
2017-11-30T15:50:09.068Z,3.60
2017-11-30T15:52:37.461Z,3.70
2017-11-30T15:55:05.741Z,3.70
2017-11-30T15:57:34.048Z,3.70
2017-11-30T16:00:03.095Z,3.50
2017-11-30T16:02:31.470Z,3.50
2017-11-30T16:05:00.103Z,3.40
2017-11-30T16:07:29.173Z,3.10
2017-11-30T16:09:57.728Z,2.90
2017-11-30T16:12:26.368Z,2.70
2017-11-30T16:14:54.670Z,2.60
2017-11-30T16:17:23.683Z,2.50
2017-11-30T16:19:52.008Z,2.40
2017-11-30T16:22:20.703Z,2.40
2017-11-30T16:24:50.243Z,2.30
2017-11-30T16:27:18.545Z,2.20
2017-11-30T16:29:47.175Z,2.30
2017-11-30T16:32:16.230Z,2.30
2017-11-30T16:34:45.330Z,2.30
2017-11-30T16:37:13.630Z,2.30
2017-11-30T16:39:43.353Z,2.20
2017-11-30T16:42:12.407Z,2.20
2017-11-30T16:44:41.451Z,2.10
2017-11-30T16:47:09.876Z,2.20
2017-11-30T16:49:39.112Z,2.10
2017-11-30T16:52:07.366Z,2.10
2017-11-30T16:54:35.752Z,2.20
2017-11-30T16:57:04.076Z,2.20
2017-11-30T16:59:33.928Z,2.20
2017-11-30T17:02:02.163Z,2.20
2017-11-30T17:04:31.178Z,2.30
2017-11-30T17:07:00.158Z,2.30
2017-11-30T17:09:29.361Z,2.40
2017-11-30T17:11:58.396Z,2.30
2017-11-30T17:14:26.986Z,2.30
2017-11-30T17:16:55.335Z,2.20
2017-11-30T17:19:23.638Z,2.20
2017-11-30T17:21:51.938Z,2.20
2017-11-30T17:24:20.254Z,2.20
2017-11-30T17:26:48.711Z,2.30
2017-11-30T17:29:17.003Z,2.30
2017-11-30T17:31:46.246Z,2.40
2017-11-30T17:34:14.557Z,2.40
2017-11-30T17:36:42.855Z,2.40
2017-11-30T17:39:11.164Z,2.30
2017-11-30T17:41:39.525Z,2.40
2017-11-30T17:44:07.781Z,2.30
2017-11-30T17:46:36.178Z,2.30
2017-11-30T17:49:04.470Z,2.30
2017-11-30T17:51:32.735Z,2.30
2017-11-30T17:54:02.542Z,2.50
2017-11-30T17:56:33.910Z,2.50
2017-11-30T17:59:02.268Z,2.50
2017-11-30T18:01:31.314Z,2.40
2017-11-30T18:03:59.623Z,2.40
2017-11-30T18:06:27.916Z,2.40
2017-11-30T18:08:56.201Z,2.30
2017-11-30T18:11:25.284Z,2.30
2017-11-30T18:13:53.592Z,2.30
2017-11-30T18:16:22.627Z,2.30
2017-11-30T18:18:51.477Z,2.30
2017-11-30T18:21:19.777Z,2.40
2017-11-30T18:23:48.672Z,2.50
2017-11-30T18:26:16.952Z,2.40
2017-11-30T18:28:46.183Z,2.40
2017-11-30T18:31:14.485Z,2.40
2017-11-30T18:33:43.521Z,2.20
2017-11-30T18:36:13.354Z,2.20
2017-11-30T18:38:41.628Z,2.20
2017-11-30T18:41:09.942Z,2.10
2017-11-30T18:43:39.006Z,2.00
2017-11-30T18:46:07.313Z,2.00
2017-11-30T18:48:35.904Z,2.00
2017-11-30T18:51:04.211Z,2.00
2017-11-30T18:53:33.085Z,2.00
2017-11-30T18:56:02.142Z,2.00
2017-11-30T18:58:30.541Z,2.00
2017-11-30T19:00:59.725Z,1.90
2017-11-30T19:03:28.023Z,1.90
2017-11-30T19:05:57.133Z,1.80
2017-11-30T19:08:25.408Z,1.80
2017-11-30T19:10:53.717Z,1.70
2017-11-30T19:13:22.752Z,1.70
2017-11-30T19:15:51.105Z,1.70
2017-11-30T19:18:20.298Z,1.80
2017-11-30T19:20:48.601Z,1.90
2017-11-30T19:23:17.112Z,1.90
2017-11-30T19:25:45.594Z,1.80
2017-11-30T19:28:13.872Z,1.80
2017-11-30T19:30:43.013Z,1.90
2017-11-30T19:33:11.535Z,1.90
2017-11-30T19:35:40.751Z,1.90
2017-11-30T19:38:09.082Z,2.00
2017-11-30T19:40:38.157Z,1.90
2017-11-30T19:43:06.474Z,1.90
2017-11-30T19:45:35.577Z,2.00
2017-11-30T19:48:04.698Z,2.00
2017-11-30T19:50:32.972Z,2.00
2017-11-30T19:53:01.581Z,2.10
2017-11-30T19:55:30.715Z,2.00
2017-11-30T19:57:59.051Z,2.00
2017-11-30T20:00:27.579Z,2.10
2017-11-30T20:02:55.920Z,2.00
2017-11-30T20:05:24.382Z,2.00
2017-11-30T20:07:52.781Z,1.90
2017-11-30T20:10:22.067Z,2.00
2017-11-30T20:12:50.358Z,2.00
2017-11-30T20:15:19.423Z,2.20
2017-11-30T20:17:47.729Z,2.20
2017-11-30T20:20:16.877Z,2.20
2017-11-30T20:22:45.250Z,2.10
2017-11-30T20:25:13.541Z,2.10
2017-11-30T20:27:41.956Z,2.10
2017-11-30T20:30:10.321Z,2.10
2017-11-30T20:32:38.847Z,2.10
2017-11-30T20:35:07.882Z,2.10
2017-11-30T20:37:36.294Z,2.10
2017-11-30T20:40:06.116Z,2.20
2017-11-30T20:42:34.403Z,2.20
2017-11-30T20:45:02.767Z,2.30
2017-11-30T20:47:31.862Z,2.40
2017-11-30T20:50:01.081Z,2.30
2017-11-30T20:52:29.407Z,2.30
2017-11-30T20:54:58.694Z,2.30
2017-11-30T20:57:27.139Z,2.30
2017-11-30T20:59:55.515Z,2.30
2017-11-30T21:02:25.052Z,2.20
2017-11-30T21:04:54.336Z,2.20
2017-11-30T21:07:23.489Z,2.20
2017-11-30T21:09:51.815Z,2.20
2017-11-30T21:12:21.914Z,2.30
2017-11-30T21:14:50.241Z,2.30
2017-11-30T21:17:19.018Z,2.30
2017-11-30T21:19:47.356Z,2.30
2017-11-30T21:22:15.713Z,2.30
2017-11-30T21:24:44.169Z,2.30
2017-11-30T21:27:13.784Z,2.40
2017-11-30T21:29:43.717Z,2.50
2017-11-30T21:32:12.420Z,2.60
2017-11-30T21:34:40.877Z,2.60
2017-11-30T21:37:09.381Z,2.60
2017-11-30T21:39:49.851Z,2.60
2017-11-30T21:42:23.119Z,2.50
2017-11-30T21:44:51.622Z,2.50
2017-11-30T21:47:22.006Z,2.50
2017-11-30T21:49:50.425Z,2.50
2017-11-30T21:52:20.598Z,2.70
2017-11-30T21:54:51.181Z,2.60
2017-11-30T21:57:20.786Z,2.60
2017-11-30T21:59:49.176Z,2.40
2017-11-30T22:02:18.415Z,2.30
2017-11-30T22:04:54.241Z,2.30
2017-11-30T22:07:24.249Z,2.40
2017-11-30T22:09:52.505Z,2.40
2017-11-30T22:12:22.496Z,2.50
2017-11-30T22:14:51.084Z,2.40
2017-11-30T22:17:20.718Z,2.30
2017-11-30T22:19:49.924Z,2.20
2017-11-30T22:22:18.467Z,2.10
2017-11-30T22:24:46.923Z,2.00
2017-11-30T22:27:15.435Z,2.00
2017-11-30T22:29:52.452Z,2.00
2017-11-30T22:32:20.815Z,2.00
2017-11-30T22:34:49.333Z,2.10
2017-11-30T22:37:20.206Z,2.10
2017-11-30T22:39:52.676Z,2.00
2017-11-30T22:42:23.178Z,2.10
2017-11-30T22:44:52.674Z,2.20
2017-11-30T22:50:31.206Z,2.10
2017-11-30T22:52:59.911Z,2.10
2017-11-30T22:55:30.470Z,2.20
2017-11-30T22:58:01.381Z,2.30
2017-11-30T23:00:49.311Z,2.30
2017-11-30T23:03:24.190Z,2.30
2017-11-30T23:05:52.829Z,2.30
2017-11-30T23:08:24.688Z,2.20
2017-11-30T23:10:56.725Z,2.20
2017-11-30T23:13:25.355Z,2.10
2017-11-30T23:16:01.013Z,2.10
2017-11-30T23:18:29.496Z,2.00
2017-11-30T23:21:03.843Z,2.00
2017-11-30T23:23:38.522Z,2.00
2017-11-30T23:28:58.522Z,2.00
2017-11-30T23:39:07.260Z,2.30
2017-11-30T23:47:36.508Z,2.40
2017-11-30T23:50:10.896Z,2.40
2017-11-30T23:52:39.441Z,2.40
2017-11-30T23:55:08.921Z,2.50
2017-11-30T23:57:40.826Z,2.50
